sensor_id;sensor_type;location;lat;lon;timestamp;P1;durP1;ratioP1;P2;durP2;ratioP2
8556;SDS011;4316;53.840;10.762;2023-01-30T00:00:34;21.67;;;15.50;;
8556;SDS011;4316;53.840;10.762;2023-01-30T00:03:00;22.67;;;13.83;;
8556;SDS011;4316;53.840;10.762;2023-01-30T00:05:26;25.13;;;17.27;;
8556;SDS011;4316;53.840;10.762;2023-01-30T00:07:52;25.27;;;18.07;;
8556;SDS011;4316;53.840;10.762;2023-01-30T00:10:17;23.00;;;17.17;;
8556;SDS011;4316;53.840;10.762;2023-01-30T00:12:43;27.33;;;17.80;;
8556;SDS011;4316;53.840;10.762;2023-01-30T00:15:08;24.47;;;15.93;;
8556;SDS011;4316;53.840;10.762;2023-01-30T00:17:34;27.23;;;17.20;;
8556;SDS011;4316;53.840;10.762;2023-01-30T00:20:00;23.80;;;15.67;;
8556;SDS011;4316;53.840;10.762;2023-01-30T00:22:26;35.43;;;21.63;;
8556;SDS011;4316;53.840;10.762;2023-01-30T00:24:51;19.60;;;13.83;;
8556;SDS011;4316;53.840;10.762;2023-01-30T00:27:17;32.73;;;21.53;;
8556;SDS011;4316;53.840;10.762;2023-01-30T00:29:42;35.83;;;21.80;;
8556;SDS011;4316;53.840;10.762;2023-01-30T00:32:08;35.23;;;21.00;;
8556;SDS011;4316;53.840;10.762;2023-01-30T00:34:36;24.20;;;15.83;;
8556;SDS011;4316;53.840;10.762;2023-01-30T00:37:06;30.77;;;20.30;;
8556;SDS011;4316;53.840;10.762;2023-01-30T00:39:32;33.33;;;19.67;;
8556;SDS011;4316;53.840;10.762;2023-01-30T00:41:59;29.37;;;18.77;;
8556;SDS011;4316;53.840;10.762;2023-01-30T00:44:43;28.20;;;17.83;;
8556;SDS011;4316;53.840;10.762;2023-01-30T00:47:28;24.40;;;16.33;;
8556;SDS011;4316;53.840;10.762;2023-01-30T00:49:53;30.37;;;19.03;;
8556;SDS011;4316;53.840;10.762;2023-01-30T00:52:19;26.27;;;18.03;;
8556;SDS011;4316;53.840;10.762;2023-01-30T00:54:44;32.07;;;20.63;;
8556;SDS011;4316;53.840;10.762;2023-01-30T00:57:10;28.63;;;17.70;;
8556;SDS011;4316;53.840;10.762;2023-01-30T00:59:35;31.27;;;18.57;;
8556;SDS011;4316;53.840;10.762;2023-01-30T01:02:01;25.07;;;15.83;;
8556;SDS011;4316;53.840;10.762;2023-01-30T01:04:27;35.33;;;18.53;;
8556;SDS011;4316;53.840;10.762;2023-01-30T01:06:52;27.50;;;17.73;;
8556;SDS011;4316;53.840;10.762;2023-01-30T01:09:18;30.40;;;19.37;;
8556;SDS011;4316;53.840;10.762;2023-01-30T01:11:43;35.40;;;18.30;;
8556;SDS011;4316;53.840;10.762;2023-01-30T01:14:09;25.60;;;14.57;;
8556;SDS011;4316;53.840;10.762;2023-01-30T01:16:35;25.00;;;16.60;;
8556;SDS011;4316;53.840;10.762;2023-01-30T01:19:01;27.33;;;17.40;;
8556;SDS011;4316;53.840;10.762;2023-01-30T01:21:27;29.40;;;18.73;;
8556;SDS011;4316;53.840;10.762;2023-01-30T01:23:53;31.63;;;18.77;;
8556;SDS011;4316;53.840;10.762;2023-01-30T01:26:21;30.30;;;19.23;;
8556;SDS011;4316;53.840;10.762;2023-01-30T01:28:46;33.77;;;19.53;;
8556;SDS011;4316;53.840;10.762;2023-01-30T01:31:13;29.97;;;18.67;;
8556;SDS011;4316;53.840;10.762;2023-01-30T01:33:40;35.33;;;20.80;;
8556;SDS011;4316;53.840;10.762;2023-01-30T01:36:05;40.47;;;21.63;;
8556;SDS011;4316;53.840;10.762;2023-01-30T01:38:32;26.47;;;17.00;;
8556;SDS011;4316;53.840;10.762;2023-01-30T01:40:57;34.33;;;19.73;;
8556;SDS011;4316;53.840;10.762;2023-01-30T01:43:26;30.80;;;20.33;;
8556;SDS011;4316;53.840;10.762;2023-01-30T01:45:58;16.00;;;10.97;;
8556;SDS011;4316;53.840;10.762;2023-01-30T01:48:31;33.23;;;19.60;;
8556;SDS011;4316;53.840;10.762;2023-01-30T01:51:01;43.83;;;22.43;;
8556;SDS011;4316;53.840;10.762;2023-01-30T01:53:33;28.40;;;18.87;;
8556;SDS011;4316;53.840;10.762;2023-01-30T01:56:04;36.93;;;21.70;;
8556;SDS011;4316;53.840;10.762;2023-01-30T01:58:33;33.63;;;21.00;;
8556;SDS011;4316;53.840;10.762;2023-01-30T02:01:03;27.90;;;15.77;;
8556;SDS011;4316;53.840;10.762;2023-01-30T02:03:31;34.10;;;20.17;;
8556;SDS011;4316;53.840;10.762;2023-01-30T02:06:01;23.63;;;15.10;;
8556;SDS011;4316;53.840;10.762;2023-01-30T02:08:30;32.70;;;20.53;;
8556;SDS011;4316;53.840;10.762;2023-01-30T02:11:02;28.77;;;17.47;;
8556;SDS011;4316;53.840;10.762;2023-01-30T02:13:35;36.47;;;22.17;;
8556;SDS011;4316;53.840;10.762;2023-01-30T02:16:03;30.40;;;17.13;;
8556;SDS011;4316;53.840;10.762;2023-01-30T02:18:31;26.20;;;16.53;;
8556;SDS011;4316;53.840;10.762;2023-01-30T02:29:34;25.73;;;17.60;;
8556;SDS011;4316;53.840;10.762;2023-01-30T02:32:33;27.40;;;14.63;;
8556;SDS011;4316;53.840;10.762;2023-01-30T02:35:11;23.63;;;15.77;;
8556;SDS011;4316;53.840;10.762;2023-01-30T02:41:11;16.63;;;11.27;;
8556;SDS011;4316;53.840;10.762;2023-01-30T02:44:10;22.17;;;14.23;;
8556;SDS011;4316;53.840;10.762;2023-01-30T02:46:46;24.30;;;13.67;;
8556;SDS011;4316;53.840;10.762;2023-01-30T02:49:20;24.03;;;15.77;;
8556;SDS011;4316;53.840;10.762;2023-01-30T02:51:55;18.47;;;12.37;;
8556;SDS011;4316;53.840;10.762;2023-01-30T02:54:24;23.73;;;15.40;;
8556;SDS011;4316;53.840;10.762;2023-01-30T02:56:51;27.57;;;14.77;;
8556;SDS011;4316;53.840;10.762;2023-01-30T02:59:23;18.40;;;13.13;;
8556;SDS011;4316;53.840;10.762;2023-01-30T03:04:47;21.40;;;13.20;;
8556;SDS011;4316;53.840;10.762;2023-01-30T03:07:31;13.77;;;10.03;;
8556;SDS011;4316;53.840;10.762;2023-01-30T03:13:09;14.63;;;10.83;;
8556;SDS011;4316;53.840;10.762;2023-01-30T03:16:02;17.97;;;12.47;;
8556;SDS011;4316;53.840;10.762;2023-01-30T03:18:47;16.47;;;10.50;;
8556;SDS011;4316;53.840;10.762;2023-01-30T03:21:14;16.27;;;11.97;;
8556;SDS011;4316;53.840;10.762;2023-01-30T03:23:40;15.73;;;10.70;;
8556;SDS011;4316;53.840;10.762;2023-01-30T03:26:11;16.27;;;10.70;;
8556;SDS011;4316;53.840;10.762;2023-01-30T03:28:42;10.77;;;8.03;;
8556;SDS011;4316;53.840;10.762;2023-01-30T03:31:10;10.67;;;7.77;;
8556;SDS011;4316;53.840;10.762;2023-01-30T03:33:36;13.70;;;10.43;;
8556;SDS011;4316;53.840;10.762;2023-01-30T03:36:01;11.00;;;7.93;;
8556;SDS011;4316;53.840;10.762;2023-01-30T03:38:27;9.47;;;6.53;;
8556;SDS011;4316;53.840;10.762;2023-01-30T03:40:53;13.20;;;8.53;;
8556;SDS011;4316;53.840;10.762;2023-01-30T03:43:19;10.17;;;7.33;;
8556;SDS011;4316;53.840;10.762;2023-01-30T03:45:44;14.63;;;9.13;;
8556;SDS011;4316;53.840;10.762;2023-01-30T03:48:10;10.67;;;8.20;;
8556;SDS011;4316;53.840;10.762;2023-01-30T03:50:37;12.60;;;8.90;;
8556;SDS011;4316;53.840;10.762;2023-01-30T03:53:02;7.00;;;5.03;;
8556;SDS011;4316;53.840;10.762;2023-01-30T03:55:28;11.37;;;8.77;;
8556;SDS011;4316;53.840;10.762;2023-01-30T03:57:54;9.53;;;7.20;;
8556;SDS011;4316;53.840;10.762;2023-01-30T04:00:26;11.60;;;8.37;;
8556;SDS011;4316;53.840;10.762;2023-01-30T04:02:52;10.47;;;7.97;;
8556;SDS011;4316;53.840;10.762;2023-01-30T04:05:19;8.43;;;5.57;;
8556;SDS011;4316;53.840;10.762;2023-01-30T04:07:49;11.23;;;6.93;;
8556;SDS011;4316;53.840;10.762;2023-01-30T04:10:15;12.70;;;7.70;;
8556;SDS011;4316;53.840;10.762;2023-01-30T04:12:44;7.17;;;5.57;;
8556;SDS011;4316;53.840;10.762;2023-01-30T04:15:10;8.87;;;6.43;;
8556;SDS011;4316;53.840;10.762;2023-01-30T04:17:46;11.10;;;7.33;;
8556;SDS011;4316;53.840;10.762;2023-01-30T04:20:31;13.03;;;7.10;;
8556;SDS011;4316;53.840;10.762;2023-01-30T04:22:56;14.40;;;7.47;;
8556;SDS011;4316;53.840;10.762;2023-01-30T04:25:24;10.63;;;6.67;;
8556;SDS011;4316;53.840;10.762;2023-01-30T04:27:50;10.47;;;6.13;;
8556;SDS011;4316;53.840;10.762;2023-01-30T04:30:19;9.47;;;6.40;;
8556;SDS011;4316;53.840;10.762;2023-01-30T04:32:47;10.63;;;5.90;;
8556;SDS011;4316;53.840;10.762;2023-01-30T04:35:13;8.00;;;5.73;;
8556;SDS011;4316;53.840;10.762;2023-01-30T04:37:39;7.93;;;5.13;;
8556;SDS011;4316;53.840;10.762;2023-01-30T04:40:06;10.40;;;5.80;;
8556;SDS011;4316;53.840;10.762;2023-01-30T04:42:33;10.10;;;5.60;;
8556;SDS011;4316;53.840;10.762;2023-01-30T04:45:18;6.63;;;4.60;;
8556;SDS011;4316;53.840;10.762;2023-01-30T04:47:44;6.77;;;4.57;;
8556;SDS011;4316;53.840;10.762;2023-01-30T04:50:09;7.47;;;4.20;;
8556;SDS011;4316;53.840;10.762;2023-01-30T04:52:36;5.17;;;3.20;;
8556;SDS011;4316;53.840;10.762;2023-01-30T04:55:01;9.47;;;3.83;;
8556;SDS011;4316;53.840;10.762;2023-01-30T04:57:27;8.43;;;3.10;;
8556;SDS011;4316;53.840;10.762;2023-01-30T04:59:53;9.17;;;3.40;;
8556;SDS011;4316;53.840;10.762;2023-01-30T05:02:18;6.37;;;2.70;;
8556;SDS011;4316;53.840;10.762;2023-01-30T05:04:44;8.87;;;2.93;;
8556;SDS011;4316;53.840;10.762;2023-01-30T05:07:12;10.03;;;2.63;;
8556;SDS011;4316;53.840;10.762;2023-01-30T05:09:38;6.97;;;2.83;;
8556;SDS011;4316;53.840;10.762;2023-01-30T05:12:03;5.27;;;2.37;;
8556;SDS011;4316;53.840;10.762;2023-01-30T05:14:29;6.83;;;2.73;;
8556;SDS011;4316;53.840;10.762;2023-01-30T05:16:54;6.70;;;2.47;;
8556;SDS011;4316;53.840;10.762;2023-01-30T05:19:20;5.67;;;2.07;;
8556;SDS011;4316;53.840;10.762;2023-01-30T05:21:45;7.43;;;2.33;;
8556;SDS011;4316;53.840;10.762;2023-01-30T05:24:11;9.20;;;2.50;;
8556;SDS011;4316;53.840;10.762;2023-01-30T05:26:36;11.53;;;2.23;;
8556;SDS011;4316;53.840;10.762;2023-01-30T05:29:02;11.27;;;2.93;;
8556;SDS011;4316;53.840;10.762;2023-01-30T05:31:28;6.07;;;2.20;;
8556;SDS011;4316;53.840;10.762;2023-01-30T05:33:53;13.47;;;3.17;;
8556;SDS011;4316;53.840;10.762;2023-01-30T05:36:20;10.60;;;2.63;;
8556;SDS011;4316;53.840;10.762;2023-01-30T05:38:47;11.50;;;2.63;;
8556;SDS011;4316;53.840;10.762;2023-01-30T05:41:13;10.90;;;2.80;;
8556;SDS011;4316;53.840;10.762;2023-01-30T05:43:40;20.87;;;3.10;;
8556;SDS011;4316;53.840;10.762;2023-01-30T05:46:06;9.47;;;2.50;;
8556;SDS011;4316;53.840;10.762;2023-01-30T05:48:33;12.13;;;2.63;;
8556;SDS011;4316;53.840;10.762;2023-01-30T05:50:59;12.63;;;2.00;;
8556;SDS011;4316;53.840;10.762;2023-01-30T05:53:29;14.00;;;2.33;;
8556;SDS011;4316;53.840;10.762;2023-01-30T05:55:59;11.97;;;2.53;;
8556;SDS011;4316;53.840;10.762;2023-01-30T05:58:26;13.90;;;2.83;;
8556;SDS011;4316;53.840;10.762;2023-01-30T06:00:53;14.13;;;2.90;;
8556;SDS011;4316;53.840;10.762;2023-01-30T06:03:18;9.67;;;2.20;;
8556;SDS011;4316;53.840;10.762;2023-01-30T06:05:44;14.87;;;3.07;;
8556;SDS011;4316;53.840;10.762;2023-01-30T06:08:10;14.20;;;3.00;;
8556;SDS011;4316;53.840;10.762;2023-01-30T06:10:36;17.57;;;3.33;;
8556;SDS011;4316;53.840;10.762;2023-01-30T06:13:02;15.73;;;3.43;;
8556;SDS011;4316;53.840;10.762;2023-01-30T06:15:27;15.70;;;3.37;;
8556;SDS011;4316;53.840;10.762;2023-01-30T06:17:53;21.10;;;3.47;;
8556;SDS011;4316;53.840;10.762;2023-01-30T06:20:19;26.07;;;3.87;;
8556;SDS011;4316;53.840;10.762;2023-01-30T06:22:44;23.30;;;4.50;;
8556;SDS011;4316;53.840;10.762;2023-01-30T06:25:11;25.50;;;3.43;;
8556;SDS011;4316;53.840;10.762;2023-01-30T06:27:37;24.27;;;3.50;;
8556;SDS011;4316;53.840;10.762;2023-01-30T06:30:02;23.43;;;4.83;;
8556;SDS011;4316;53.840;10.762;2023-01-30T06:32:28;19.57;;;4.07;;
8556;SDS011;4316;53.840;10.762;2023-01-30T06:34:54;23.63;;;4.57;;
8556;SDS011;4316;53.840;10.762;2023-01-30T06:37:19;30.00;;;5.53;;
8556;SDS011;4316;53.840;10.762;2023-01-30T06:39:45;33.37;;;5.17;;
8556;SDS011;4316;53.840;10.762;2023-01-30T06:42:10;31.17;;;6.40;;
8556;SDS011;4316;53.840;10.762;2023-01-30T06:44:36;35.50;;;5.03;;
8556;SDS011;4316;53.840;10.762;2023-01-30T06:47:01;37.20;;;6.97;;
8556;SDS011;4316;53.840;10.762;2023-01-30T06:49:27;30.33;;;5.60;;
8556;SDS011;4316;53.840;10.762;2023-01-30T06:51:53;27.70;;;5.13;;
8556;SDS011;4316;53.840;10.762;2023-01-30T06:54:18;33.97;;;5.50;;
8556;SDS011;4316;53.840;10.762;2023-01-30T06:56:44;25.80;;;5.27;;
8556;SDS011;4316;53.840;10.762;2023-01-30T06:59:09;28.63;;;5.57;;
8556;SDS011;4316;53.840;10.762;2023-01-30T07:01:35;29.90;;;5.63;;
8556;SDS011;4316;53.840;10.762;2023-01-30T07:04:01;29.60;;;5.53;;
8556;SDS011;4316;53.840;10.762;2023-01-30T07:06:27;29.80;;;5.17;;
8556;SDS011;4316;53.840;10.762;2023-01-30T07:08:53;15.47;;;3.67;;
8556;SDS011;4316;53.840;10.762;2023-01-30T07:11:20;20.53;;;4.43;;
8556;SDS011;4316;53.840;10.762;2023-01-30T07:13:46;28.67;;;5.33;;
8556;SDS011;4316;53.840;10.762;2023-01-30T07:16:11;29.83;;;5.00;;
8556;SDS011;4316;53.840;10.762;2023-01-30T07:18:37;27.03;;;4.57;;
8556;SDS011;4316;53.840;10.762;2023-01-30T07:21:02;21.43;;;4.73;;
8556;SDS011;4316;53.840;10.762;2023-01-30T07:23:28;22.33;;;3.87;;
8556;SDS011;4316;53.840;10.762;2023-01-30T07:25:53;33.00;;;5.17;;
8556;SDS011;4316;53.840;10.762;2023-01-30T07:28:19;23.03;;;4.70;;
8556;SDS011;4316;53.840;10.762;2023-01-30T07:30:45;26.90;;;4.33;;
8556;SDS011;4316;53.840;10.762;2023-01-30T07:33:10;20.30;;;4.63;;
8556;SDS011;4316;53.840;10.762;2023-01-30T07:35:36;25.13;;;4.83;;
8556;SDS011;4316;53.840;10.762;2023-01-30T07:38:02;22.23;;;4.63;;
8556;SDS011;4316;53.840;10.762;2023-01-30T07:40:29;26.43;;;4.97;;
8556;SDS011;4316;53.840;10.762;2023-01-30T07:42:58;20.30;;;3.60;;
8556;SDS011;4316;53.840;10.762;2023-01-30T07:45:30;23.33;;;4.67;;
8556;SDS011;4316;53.840;10.762;2023-01-30T07:47:59;26.10;;;3.90;;
8556;SDS011;4316;53.840;10.762;2023-01-30T07:50:25;26.30;;;3.93;;
8556;SDS011;4316;53.840;10.762;2023-01-30T07:52:51;19.70;;;4.00;;
8556;SDS011;4316;53.840;10.762;2023-01-30T07:55:16;28.17;;;5.70;;
8556;SDS011;4316;53.840;10.762;2023-01-30T07:57:42;22.83;;;4.93;;
8556;SDS011;4316;53.840;10.762;2023-01-30T08:00:07;25.97;;;4.50;;
8556;SDS011;4316;53.840;10.762;2023-01-30T08:02:35;22.70;;;4.60;;
8556;SDS011;4316;53.840;10.762;2023-01-30T08:05:01;23.43;;;5.03;;
8556;SDS011;4316;53.840;10.762;2023-01-30T08:07:26;35.40;;;5.30;;
8556;SDS011;4316;53.840;10.762;2023-01-30T08:09:52;21.23;;;4.80;;
8556;SDS011;4316;53.840;10.762;2023-01-30T08:12:17;23.47;;;4.03;;
8556;SDS011;4316;53.840;10.762;2023-01-30T08:14:43;18.33;;;4.30;;
8556;SDS011;4316;53.840;10.762;2023-01-30T08:17:08;21.93;;;4.47;;
8556;SDS011;4316;53.840;10.762;2023-01-30T08:19:34;23.37;;;4.37;;
8556;SDS011;4316;53.840;10.762;2023-01-30T08:22:00;21.00;;;4.20;;
8556;SDS011;4316;53.840;10.762;2023-01-30T08:24:25;17.33;;;4.00;;
8556;SDS011;4316;53.840;10.762;2023-01-30T08:26:51;27.77;;;4.93;;
8556;SDS011;4316;53.840;10.762;2023-01-30T08:29:16;25.77;;;4.93;;
8556;SDS011;4316;53.840;10.762;2023-01-30T08:31:42;22.23;;;3.93;;
8556;SDS011;4316;53.840;10.762;2023-01-30T08:34:08;32.23;;;5.77;;
8556;SDS011;4316;53.840;10.762;2023-01-30T08:36:33;27.00;;;5.40;;
8556;SDS011;4316;53.840;10.762;2023-01-30T08:38:59;34.30;;;4.90;;
8556;SDS011;4316;53.840;10.762;2023-01-30T08:41:24;21.97;;;5.03;;
8556;SDS011;4316;53.840;10.762;2023-01-30T08:43:51;22.27;;;5.37;;
8556;SDS011;4316;53.840;10.762;2023-01-30T08:46:17;19.23;;;3.90;;
8556;SDS011;4316;53.840;10.762;2023-01-30T08:48:44;20.37;;;4.03;;
8556;SDS011;4316;53.840;10.762;2023-01-30T08:51:10;39.60;;;6.87;;
8556;SDS011;4316;53.840;10.762;2023-01-30T08:53:36;28.40;;;4.37;;
8556;SDS011;4316;53.840;10.762;2023-01-30T08:56:01;38.07;;;6.43;;
8556;SDS011;4316;53.840;10.762;2023-01-30T08:58:27;33.67;;;7.23;;
8556;SDS011;4316;53.840;10.762;2023-01-30T09:00:53;36.93;;;6.83;;
8556;SDS011;4316;53.840;10.762;2023-01-30T09:03:18;31.97;;;6.30;;
8556;SDS011;4316;53.840;10.762;2023-01-30T09:05:44;33.43;;;7.23;;
8556;SDS011;4316;53.840;10.762;2023-01-30T09:08:10;28.17;;;5.70;;
8556;SDS011;4316;53.840;10.762;2023-01-30T09:10:36;21.27;;;5.47;;
8556;SDS011;4316;53.840;10.762;2023-01-30T09:13:01;24.73;;;4.80;;
8556;SDS011;4316;53.840;10.762;2023-01-30T09:15:29;29.37;;;6.07;;
8556;SDS011;4316;53.840;10.762;2023-01-30T09:17:55;37.60;;;7.87;;
8556;SDS011;4316;53.840;10.762;2023-01-30T09:20:21;33.27;;;5.30;;
8556;SDS011;4316;53.840;10.762;2023-01-30T09:22:46;33.40;;;7.60;;
8556;SDS011;4316;53.840;10.762;2023-01-30T09:25:13;32.73;;;7.57;;
8556;SDS011;4316;53.840;10.762;2023-01-30T09:27:39;32.00;;;7.13;;
8556;SDS011;4316;53.840;10.762;2023-01-30T09:30:08;32.80;;;6.00;;
8556;SDS011;4316;53.840;10.762;2023-01-30T09:32:36;34.50;;;7.93;;
8556;SDS011;4316;53.840;10.762;2023-01-30T09:35:02;45.73;;;6.97;;
8556;SDS011;4316;53.840;10.762;2023-01-30T09:37:28;34.20;;;6.40;;
8556;SDS011;4316;53.840;10.762;2023-01-30T09:39:54;41.40;;;7.43;;
8556;SDS011;4316;53.840;10.762;2023-01-30T09:42:26;31.63;;;6.17;;
8556;SDS011;4316;53.840;10.762;2023-01-30T09:47:57;27.90;;;6.07;;
8556;SDS011;4316;53.840;10.762;2023-01-30T09:56:08;34.83;;;7.00;;
8556;SDS011;4316;53.840;10.762;2023-01-30T09:58:48;36.63;;;7.57;;
8556;SDS011;4316;53.840;10.762;2023-01-30T10:01:22;27.90;;;6.97;;
8556;SDS011;4316;53.840;10.762;2023-01-30T10:04:34;29.23;;;6.57;;
8556;SDS011;4316;53.840;10.762;2023-01-30T10:07:07;28.53;;;7.27;;
8556;SDS011;4316;53.840;10.762;2023-01-30T10:15:40;22.30;;;4.57;;
8556;SDS011;4316;53.840;10.762;2023-01-30T10:26:43;35.23;;;6.93;;
8556;SDS011;4316;53.840;10.762;2023-01-30T10:29:29;37.37;;;7.07;;
8556;SDS011;4316;53.840;10.762;2023-01-30T10:34:39;22.57;;;6.00;;
8556;SDS011;4316;53.840;10.762;2023-01-30T10:45:52;12.00;;;2.93;;
8556;SDS011;4316;53.840;10.762;2023-01-30T10:48:50;8.60;;;2.50;;
8556;SDS011;4316;53.840;10.762;2023-01-30T10:51:51;11.33;;;2.50;;
8556;SDS011;4316;53.840;10.762;2023-01-30T10:59:59;6.33;;;1.97;;
8556;SDS011;4316;53.840;10.762;2023-01-30T11:05:17;16.70;;;2.97;;
8556;SDS011;4316;53.840;10.762;2023-01-30T11:07:46;12.40;;;2.53;;
8556;SDS011;4316;53.840;10.762;2023-01-30T11:10:18;7.00;;;2.53;;
8556;SDS011;4316;53.840;10.762;2023-01-30T11:12:55;5.27;;;1.80;;
8556;SDS011;4316;53.840;10.762;2023-01-30T11:15:37;3.50;;;1.37;;
8556;SDS011;4316;53.840;10.762;2023-01-30T11:18:06;3.93;;;1.30;;
8556;SDS011;4316;53.840;10.762;2023-01-30T11:20:37;2.33;;;1.00;;
8556;SDS011;4316;53.840;10.762;2023-01-30T11:23:20;9.70;;;1.67;;
8556;SDS011;4316;53.840;10.762;2023-01-30T11:25:48;2.73;;;1.20;;
8556;SDS011;4316;53.840;10.762;2023-01-30T11:28:15;4.13;;;1.10;;
8556;SDS011;4316;53.840;10.762;2023-01-30T11:30:42;3.07;;;1.00;;
8556;SDS011;4316;53.840;10.762;2023-01-30T11:33:16;3.20;;;1.23;;
8556;SDS011;4316;53.840;10.762;2023-01-30T11:35:44;7.80;;;2.00;;
8556;SDS011;4316;53.840;10.762;2023-01-30T11:38:21;3.43;;;1.30;;
8556;SDS011;4316;53.840;10.762;2023-01-30T11:41:02;4.70;;;1.50;;
8556;SDS011;4316;53.840;10.762;2023-01-30T11:43:32;2.40;;;1.43;;
8556;SDS011;4316;53.840;10.762;2023-01-30T11:45:58;2.90;;;1.40;;
8556;SDS011;4316;53.840;10.762;2023-01-30T11:48:26;2.63;;;1.20;;
8556;SDS011;4316;53.840;10.762;2023-01-30T11:50:54;5.13;;;1.87;;
8556;SDS011;4316;53.840;10.762;2023-01-30T11:53:43;4.27;;;1.50;;
8556;SDS011;4316;53.840;10.762;2023-01-30T12:02:25;3.40;;;1.60;;
8556;SDS011;4316;53.840;10.762;2023-01-30T12:05:00;4.37;;;1.57;;
8556;SDS011;4316;53.840;10.762;2023-01-30T12:07:35;5.30;;;1.73;;
8556;SDS011;4316;53.840;10.762;2023-01-30T12:10:16;4.33;;;1.07;;
8556;SDS011;4316;53.840;10.762;2023-01-30T12:12:50;6.10;;;1.50;;
8556;SDS011;4316;53.840;10.762;2023-01-30T12:15:21;5.60;;;1.60;;
8556;SDS011;4316;53.840;10.762;2023-01-30T12:20:53;5.67;;;1.30;;
8556;SDS011;4316;53.840;10.762;2023-01-30T12:26:25;3.33;;;1.63;;
8556;SDS011;4316;53.840;10.762;2023-01-30T12:31:45;11.17;;;2.63;;
8556;SDS011;4316;53.840;10.762;2023-01-30T12:34:14;20.50;;;3.70;;
8556;SDS011;4316;53.840;10.762;2023-01-30T12:39:22;19.97;;;3.90;;
8556;SDS011;4316;53.840;10.762;2023-01-30T12:53:35;11.43;;;3.67;;
8556;SDS011;4316;53.840;10.762;2023-01-30T13:01:49;8.13;;;1.67;;
8556;SDS011;4316;53.840;10.762;2023-01-30T13:15:24;12.57;;;2.87;;
8556;SDS011;4316;53.840;10.762;2023-01-30T13:20:48;19.60;;;3.53;;
8556;SDS011;4316;53.840;10.762;2023-01-30T13:26:26;19.77;;;3.93;;
8556;SDS011;4316;53.840;10.762;2023-01-30T13:28:57;17.70;;;3.87;;
8556;SDS011;4316;53.840;10.762;2023-01-30T13:31:28;20.00;;;4.43;;
8556;SDS011;4316;53.840;10.762;2023-01-30T13:34:06;23.23;;;4.40;;
8556;SDS011;4316;53.840;10.762;2023-01-30T13:36:44;14.83;;;3.87;;
8556;SDS011;4316;53.840;10.762;2023-01-30T13:42:06;25.60;;;3.70;;
8556;SDS011;4316;53.840;10.762;2023-01-30T13:44:38;13.23;;;3.83;;
8556;SDS011;4316;53.840;10.762;2023-01-30T13:47:19;16.33;;;3.90;;
8556;SDS011;4316;53.840;10.762;2023-01-30T13:50:10;22.13;;;3.20;;
8556;SDS011;4316;53.840;10.762;2023-01-30T13:55:43;18.60;;;4.57;;
8556;SDS011;4316;53.840;10.762;2023-01-30T13:58:37;26.27;;;6.20;;
8556;SDS011;4316;53.840;10.762;2023-01-30T14:01:11;12.30;;;2.50;;
8556;SDS011;4316;53.840;10.762;2023-01-30T14:03:38;9.87;;;2.40;;
8556;SDS011;4316;53.840;10.762;2023-01-30T14:06:05;20.87;;;3.50;;
8556;SDS011;4316;53.840;10.762;2023-01-30T14:08:40;11.00;;;3.13;;
8556;SDS011;4316;53.840;10.762;2023-01-30T14:11:24;18.47;;;2.87;;
8556;SDS011;4316;53.840;10.762;2023-01-30T14:16:40;10.73;;;2.77;;
8556;SDS011;4316;53.840;10.762;2023-01-30T14:21:54;16.63;;;3.90;;
8556;SDS011;4316;53.840;10.762;2023-01-30T14:24:22;19.60;;;3.80;;
8556;SDS011;4316;53.840;10.762;2023-01-30T14:32:07;15.80;;;3.60;;
8556;SDS011;4316;53.840;10.762;2023-01-30T14:34:48;28.83;;;5.70;;
8556;SDS011;4316;53.840;10.762;2023-01-30T14:40:02;18.60;;;4.40;;
8556;SDS011;4316;53.840;10.762;2023-01-30T14:48:27;24.30;;;5.13;;
8556;SDS011;4316;53.840;10.762;2023-01-30T14:51:18;19.30;;;5.87;;
8556;SDS011;4316;53.840;10.762;2023-01-30T14:56:40;21.37;;;5.83;;
8556;SDS011;4316;53.840;10.762;2023-01-30T15:04:44;24.17;;;6.17;;
8556;SDS011;4316;53.840;10.762;2023-01-30T15:07:27;20.23;;;5.40;;
8556;SDS011;4316;53.840;10.762;2023-01-30T15:19:01;23.67;;;5.00;;
8556;SDS011;4316;53.840;10.762;2023-01-30T15:25:09;16.43;;;3.83;;
8556;SDS011;4316;53.840;10.762;2023-01-30T15:27:18;15.20;;;3.77;;
8556;SDS011;4316;53.840;10.762;2023-01-30T15:32:41;30.23;;;5.30;;
8556;SDS011;4316;53.840;10.762;2023-01-30T15:35:19;23.53;;;5.50;;
8556;SDS011;4316;53.840;10.762;2023-01-30T15:40:18;27.27;;;5.67;;
8556;SDS011;4316;53.840;10.762;2023-01-30T15:48:10;27.93;;;5.67;;
8556;SDS011;4316;53.840;10.762;2023-01-30T15:50:59;20.23;;;4.33;;
8556;SDS011;4316;53.840;10.762;2023-01-30T15:53:27;21.70;;;5.07;;
8556;SDS011;4316;53.840;10.762;2023-01-30T15:55:55;28.73;;;5.43;;
8556;SDS011;4316;53.840;10.762;2023-01-30T15:58:24;26.60;;;6.73;;
8556;SDS011;4316;53.840;10.762;2023-01-30T16:00:56;31.77;;;7.37;;
8556;SDS011;4316;53.840;10.762;2023-01-30T16:03:25;30.83;;;6.27;;
8556;SDS011;4316;53.840;10.762;2023-01-30T16:05:54;24.00;;;4.87;;
8556;SDS011;4316;53.840;10.762;2023-01-30T16:08:22;29.30;;;6.87;;
8556;SDS011;4316;53.840;10.762;2023-01-30T16:10:49;36.23;;;7.30;;
8556;SDS011;4316;53.840;10.762;2023-01-30T16:13:15;42.90;;;6.50;;
8556;SDS011;4316;53.840;10.762;2023-01-30T16:15:45;37.20;;;6.90;;
8556;SDS011;4316;53.840;10.762;2023-01-30T16:20:52;39.90;;;6.70;;
8556;SDS011;4316;53.840;10.762;2023-01-30T16:25:48;30.63;;;6.17;;
8556;SDS011;4316;53.840;10.762;2023-01-30T16:28:24;34.47;;;6.50;;
8556;SDS011;4316;53.840;10.762;2023-01-30T16:31:05;38.47;;;7.63;;
8556;SDS011;4316;53.840;10.762;2023-01-30T16:33:33;32.57;;;5.53;;
8556;SDS011;4316;53.840;10.762;2023-01-30T16:36:03;53.10;;;9.57;;
8556;SDS011;4316;53.840;10.762;2023-01-30T16:40:59;29.47;;;6.40;;
8556;SDS011;4316;53.840;10.762;2023-01-30T16:43:25;29.37;;;7.03;;
8556;SDS011;4316;53.840;10.762;2023-01-30T16:53:25;23.97;;;6.97;;
8556;SDS011;4316;53.840;10.762;2023-01-30T16:56:01;26.73;;;6.63;;
8556;SDS011;4316;53.840;10.762;2023-01-30T16:58:34;21.37;;;6.40;;
8556;SDS011;4316;53.840;10.762;2023-01-30T17:01:03;29.73;;;6.00;;
8556;SDS011;4316;53.840;10.762;2023-01-30T17:03:31;21.70;;;5.83;;
8556;SDS011;4316;53.840;10.762;2023-01-30T17:06:01;19.23;;;5.53;;
8556;SDS011;4316;53.840;10.762;2023-01-30T17:08:37;36.87;;;7.57;;
8556;SDS011;4316;53.840;10.762;2023-01-30T17:16:40;31.20;;;8.10;;
8556;SDS011;4316;53.840;10.762;2023-01-30T17:19:07;32.50;;;9.13;;
8556;SDS011;4316;53.840;10.762;2023-01-30T17:21:41;34.83;;;14.10;;
8556;SDS011;4316;53.840;10.762;2023-01-30T17:24:15;62.60;;;26.13;;
8556;SDS011;4316;53.840;10.762;2023-01-30T17:26:42;80.17;;;39.10;;
8556;SDS011;4316;53.840;10.762;2023-01-30T17:29:11;49.90;;;22.20;;
8556;SDS011;4316;53.840;10.762;2023-01-30T17:31:42;19.33;;;4.97;;
8556;SDS011;4316;53.840;10.762;2023-01-30T17:34:13;38.17;;;11.33;;
8556;SDS011;4316;53.840;10.762;2023-01-30T17:36:39;26.77;;;5.83;;
8556;SDS011;4316;53.840;10.762;2023-01-30T17:39:08;24.53;;;6.47;;
8556;SDS011;4316;53.840;10.762;2023-01-30T17:41:36;27.03;;;6.13;;
8556;SDS011;4316;53.840;10.762;2023-01-30T17:44:03;21.30;;;5.33;;
8556;SDS011;4316;53.840;10.762;2023-01-30T17:46:30;19.17;;;6.47;;
8556;SDS011;4316;53.840;10.762;2023-01-30T17:49:01;22.87;;;5.57;;
8556;SDS011;4316;53.840;10.762;2023-01-30T17:51:27;28.40;;;6.03;;
8556;SDS011;4316;53.840;10.762;2023-01-30T17:53:52;33.03;;;6.37;;
8556;SDS011;4316;53.840;10.762;2023-01-30T17:56:21;35.17;;;6.53;;
8556;SDS011;4316;53.840;10.762;2023-01-30T17:58:48;22.00;;;4.77;;
8556;SDS011;4316;53.840;10.762;2023-01-30T18:01:15;23.17;;;5.80;;
8556;SDS011;4316;53.840;10.762;2023-01-30T18:03:42;24.07;;;5.93;;
8556;SDS011;4316;53.840;10.762;2023-01-30T18:06:10;26.27;;;5.90;;
8556;SDS011;4316;53.840;10.762;2023-01-30T18:08:37;28.80;;;6.77;;
8556;SDS011;4316;53.840;10.762;2023-01-30T18:11:02;20.47;;;4.57;;